Time;durP1;ratioP1;P1;durP2;ratioP2;P2;SDS_P1;SDS_P2;PMS_P1;PMS_P2;Temp;Humidity;BMP_temperature;BMP_pressure;BME280_temperature;BME280_humidity;BME280_pressure;Samples;Min_cycle;Max_cycle;Signal;HPM_P1;HPM_P2
2023/09/08 00:00:09;;;;;;;0.40;0.40;;;;;;;18.45;67.62;97092.31;29395;277;63009;-72
2023/09/08 00:00:40;;;;;;;0.40;0.40;;;;;;;18.44;67.99;97097.00;29394;227;64009;-72
2023/09/08 00:01:11;;;;;;;0.40;0.40;;;;;;;18.43;67.78;97100.88;29394;278;64013;-73
2023/09/08 00:01:43;;;;;;;0.40;0.40;;;;;;;18.42;68.15;97094.59;29395;212;63005;-71
2023/09/08 00:02:16;;;;;;;0.40;0.40;;;;;;;18.42;67.80;97093.78;29394;209;64013;-71
2023/09/08 00:02:47;;;;;;;0.40;0.40;;;;;;;18.41;67.96;97092.19;29395;220;63005;-73
2023/09/08 00:03:21;;;;;;;0.40;0.40;;;;;;;18.40;68.17;97096.87;29395;219;63009;-70
2023/09/08 00:03:52;;;;;;;0.40;0.40;;;;;;;18.39;68.21;97089.75;29395;335;63004;-71
2023/09/08 00:04:24;;;;;;;0.40;0.40;;;;;;;18.38;68.07;97092.84;29395;222;63009;-69
2023/09/08 00:04:56;;;;;;;0.40;0.40;;;;;;;18.38;68.56;97095.59;29395;275;63004;-69
2023/09/08 00:05:27;;;;;;;0.40;0.40;;;;;;;18.36;68.42;97089.66;29395;199;63009;-68
2023/09/08 00:05:58;;;;;;;0.40;0.40;;;;;;;18.36;68.53;97095.16;29394;235;64008;-70
2023/09/08 00:06:31;;;;;;;0.40;0.40;;;;;;;18.34;68.57;97092.75;29395;206;63008;-71
2023/09/08 00:07:04;;;;;;;0.40;0.40;;;;;;;18.34;68.84;97089.19;29395;249;63005;-71
2023/09/08 00:07:35;;;;;;;0.40;0.40;;;;;;;18.32;68.64;97094.22;29395;202;63009;-70
2023/09/08 00:08:07;;;;;;;0.40;0.40;;;;;;;18.32;68.96;97094.22;29395;224;63005;-70
2023/09/08 00:08:39;;;;;;;0.40;0.40;;;;;;;18.30;68.73;97086.31;29395;199;63009;-70
2023/09/08 00:09:10;;;;;;;0.40;0.40;;;;;;;18.30;68.60;97094.56;29395;215;63005;-70
2023/09/08 00:09:41;;;;;;;0.40;0.40;;;;;;;18.31;68.65;97087.13;29395;227;63009;-70
2023/09/08 00:10:13;;;;;;;0.30;0.30;;;;;;;18.31;68.23;97098.13;29395;270;63005;-73
2023/09/08 00:10:44;;;;;;;0.32;0.32;;;;;;;18.31;68.80;97093.41;29395;331;63009;-69
2023/09/08 00:11:15;;;;;;;0.40;0.40;;;;;;;18.32;68.56;97088.72;29394;289;63999;-71
2023/09/08 00:11:46;;;;;;;0.40;0.40;;;;;;;18.32;68.20;97089.53;29395;266;63009;-68
2023/09/08 00:12:18;;;;;;;0.40;0.40;;;;;;;18.33;68.59;97095.84;29395;301;63004;-69
2023/09/08 00:12:49;;;;;;;0.35;0.35;;;;;;;18.32;68.28;97083.25;29395;393;63009;-73
2023/09/08 00:13:22;;;;;;;0.40;0.40;;;;;;;18.32;68.79;97095.03;29395;244;63004;-69
2023/09/08 00:13:53;;;;;;;0.40;0.40;;;;;;;18.32;68.55;97088.72;29395;216;63014;-71
2023/09/08 00:14:25;;;;;;;0.40;0.40;;;;;;;18.32;68.74;97084.03;29394;246;64009;-70
2023/09/08 00:14:58;;;;;;;0.37;0.37;;;;;;;18.32;68.50;97088.72;29395;323;63009;-69
2023/09/08 00:15:29;;;;;;;0.65;0.65;;;;;;;18.33;68.97;97088.41;29395;230;63005;-69
2023/09/08 00:16:03;;;;;;;0.40;0.40;;;;;;;18.34;68.69;97092.75;29395;246;63009;-70
2023/09/08 00:16:35;;;;;;;0.40;0.40;;;;;;;18.34;68.57;97091.94;29395;271;63010;-69
2023/09/08 00:17:06;;;;;;;0.40;0.40;;;;;;;18.33;69.04;97085.66;29394;255;64013;-68
2023/09/08 00:17:37;;;;;;;0.30;0.30;;;;;;;18.33;68.98;97084.84;29395;382;63005;-70
2023/09/08 00:18:09;;;;;;;0.40;0.40;;;;;;;18.32;68.93;97083.25;29395;249;63009;-70
2023/09/08 00:18:40;;;;;;;0.40;0.40;;;;;;;18.32;69.14;97085.97;29395;205;63004;-71
2023/09/08 00:19:12;;;;;;;0.30;0.30;;;;;;;18.32;68.85;97094.22;29395;251;63018;-70
2023/09/08 00:19:45;;;;;;;0.30;0.30;;;;;;;18.32;69.10;97083.25;29395;288;63004;-67
2023/09/08 00:20:16;;;;;;;0.30;0.30;;;;;;;18.31;69.21;97087.94;29395;366;63022;-70
2023/09/08 00:20:47;;;;;;;0.30;0.30;;;;;;;18.32;69.50;97085.97;29395;428;63004;-69
2023/09/08 00:21:19;;;;;;;0.30;0.30;;;;;;;18.32;68.97;97083.25;29395;227;63008;-70
2023/09/08 00:21:50;;;;;;;0.30;0.30;;;;;;;18.32;69.46;97088.72;29395;228;63005;-70
2023/09/08 00:22:21;;;;;;;0.40;0.40;;;;;;;18.33;69.00;97090.34;29394;291;64004;-68
2023/09/08 00:22:53;;;;;;;0.32;0.32;;;;;;;18.32;68.96;97088.72;29395;283;63005;-70
2023/09/08 00:23:26;;;;;;;0.40;0.40;;;;;;;18.31;68.94;97081.63;29395;336;63009;-70
2023/09/08 00:24:00;;;;;;;0.30;0.30;;;;;;;18.32;69.32;97088.72;29395;223;63005;-69
2023/09/08 00:24:33;;;;;;;0.40;0.40;;;;;;;18.32;69.19;97094.22;29395;428;63009;-70
2023/09/08 00:25:06;;;;;;;0.40;0.40;;;;;;;18.31;69.10;97093.41;29395;282;63005;-71
2023/09/08 00:25:40;;;;;;;0.30;0.30;;;;;;;18.31;69.04;97081.63;29395;227;63009;-72
2023/09/08 00:26:12;;;;;;;0.40;0.40;;;;;;;18.32;69.17;97088.72;29395;287;63004;-68
2023/09/08 00:26:43;;;;;;;0.40;0.40;;;;;;;18.31;69.14;97092.62;29395;248;63009;-70
2023/09/08 00:27:14;;;;;;;0.40;0.40;;;;;;;18.29;69.36;97090.22;29395;218;63000;-52
2023/09/08 00:27:46;;;;;;;0.40;0.40;;;;;;;18.29;69.38;97081.97;29394;287;64013;-73
2023/09/08 00:28:17;;;;;;;0.40;0.40;;;;;;;18.28;68.99;97090.53;29395;287;63004;-68
2023/09/08 00:28:48;;;;;;;0.40;0.40;;;;;;;18.26;69.30;97084.59;29395;233;63008;-71
2023/09/08 00:29:19;;;;;;;0.37;0.37;;;;;;;18.24;69.46;97084.91;29395;202;63004;-74
2023/09/08 00:29:52;;;;;;;0.40;0.40;;;;;;;18.24;69.56;97084.13;29395;240;63019;-68
2023/09/08 00:30:24;;;;;;;0.50;0.50;;;;;;;18.23;69.46;97093.50;29395;254;63005;-70
2023/09/08 00:30:55;;;;;;;0.40;0.40;;;;;;;18.22;69.35;97089.16;29395;243;63009;-72
2023/09/08 00:31:27;;;;;;;0.40;0.40;;;;;;;18.20;69.63;97091.41;29395;283;63005;-68
2023/09/08 00:32:01;;;;;;;0.40;0.40;;;;;;;18.20;69.48;97085.94;29395;327;63009;-69
2023/09/08 00:32:32;;;;;;;0.40;0.40;;;;;;;18.20;69.75;97088.69;29395;209;63005;-71
2023/09/08 00:33:08;;;;;;;0.40;0.40;;;;;;;18.21;69.18;97087.53;29394;287;64013;-74
2023/09/08 00:33:40;;;;;;;0.30;0.30;;;;;;;18.20;69.53;97085.94;29395;203;63004;-68
2023/09/08 00:34:12;;;;;;;0.40;0.40;;;;;;;18.20;69.25;97083.19;29395;287;63009;-69
2023/09/08 00:34:43;;;;;;;0.40;0.40;;;;;;;18.19;69.41;97081.56;29395;328;63004;-70
2023/09/08 00:35:14;;;;;;;0.40;0.40;;;;;;;18.19;69.19;97089.81;29395;263;63004;-73
2023/09/08 00:35:48;;;;;;;0.40;0.40;;;;;;;18.19;69.19;97084.31;29395;196;63004;-54
2023/09/08 00:36:20;;;;;;;0.50;0.50;;;;;;;18.20;69.10;97080.44;29395;268;63026;-73
2023/09/08 00:36:52;;;;;;;0.40;0.40;;;;;;;18.20;69.13;97086.72;29395;235;63004;-68
2023/09/08 00:37:24;;;;;;;0.40;0.40;;;;;;;18.20;68.78;97085.94;29395;283;63009;-72
2023/09/08 00:37:55;;;;;;;0.40;0.40;;;;;;;18.20;69.03;97075.75;29395;216;63005;-74
2023/09/08 00:38:26;;;;;;;0.40;0.40;;;;;;;18.20;68.65;97086.72;29394;230;64014;-74
2023/09/08 00:38:59;;;;;;;0.40;0.40;;;;;;;18.22;68.69;97089.16;29395;240;63000;-71
2023/09/08 00:39:30;;;;;;;0.40;0.40;;;;;;;18.21;69.09;97082.03;29395;225;63009;-71
2023/09/08 00:40:02;;;;;;;0.40;0.40;;;;;;;18.19;68.75;97087.06;29395;198;63005;-70
2023/09/08 00:40:33;;;;;;;0.40;0.40;;;;;;;18.18;68.96;97080.78;29395;294;63009;-71
2023/09/08 00:41:07;;;;;;;0.40;0.40;;;;;;;18.17;68.86;97084.66;29395;215;63004;-68
2023/09/08 00:41:38;;;;;;;0.30;0.30;;;;;;;18.15;69.06;97088.87;29395;273;63009;-69
2023/09/08 00:42:10;;;;;;;0.40;0.40;;;;;;;18.15;69.08;97089.69;29395;276;63004;-72
2023/09/08 00:42:42;;;;;;;0.40;0.40;;;;;;;18.15;68.82;97088.87;29395;252;63009;-68
2023/09/08 00:43:16;;;;;;;0.40;0.40;;;;;;;18.14;68.82;97081.78;29395;197;63004;-69
2023/09/08 00:43:47;;;;;;;0.40;0.40;;;;;;;18.13;69.17;97085.66;29394;218;64013;-68
2023/09/08 00:44:18;;;;;;;0.40;0.40;;;;;;;18.13;68.70;97086.47;29395;245;63004;-68
2023/09/08 00:44:50;;;;;;;0.40;0.40;;;;;;;18.12;69.01;97086.81;29395;299;63009;-68
2023/09/08 00:45:22;;;;;;;0.40;0.40;;;;;;;18.13;69.15;97075.47;29395;202;63005;-69
2023/09/08 00:45:55;;;;;;;0.40;0.40;;;;;;;18.14;69.01;97087.28;29395;361;63009;-69
2023/09/08 00:46:34;;;;;;;0.40;0.40;;;;;;;18.13;68.87;97080.16;29417;218;63005;-71
2023/09/08 00:47:06;;;;;;;0.40;0.40;;;;;;;18.13;68.80;97082.91;29373;240;63009;-68
2023/09/08 00:47:37;;;;;;;0.40;0.40;;;;;;;18.12;69.01;97082.13;29395;227;63013;-70
2023/09/08 00:48:09;;;;;;;0.40;0.40;;;;;;;18.11;68.87;97088.75;29395;218;63009;-70
2023/09/08 00:48:42;;;;;;;0.40;0.40;;;;;;;18.09;68.90;97091.03;29395;352;63004;-70
2023/09/08 00:49:16;;;;;;;1.02;1.02;;;;;;;18.11;68.65;97093.44;29394;254;64013;-70
2023/09/08 00:49:49;;;;;;;0.40;0.40;;;;;;;18.09;68.95;97091.81;29395;290;63004;-68
2023/09/08 00:50:20;;;;;;;0.40;0.40;;;;;;;18.08;68.81;97083.91;29395;199;63008;-69
2023/09/08 00:50:52;;;;;;;0.40;0.40;;;;;;;18.07;69.03;97088.63;29395;221;63004;-51
2023/09/08 00:51:23;;;;;;;0.40;0.40;;;;;;;18.05;69.30;97085.41;29395;203;63024;-67
2023/09/08 00:51:54;;;;;;;0.40;0.40;;;;;;;18.04;68.95;97086.53;29395;207;63001;-68
2023/09/08 00:52:31;;;;;;;0.40;0.40;;;;;;;18.03;69.23;97082.19;29395;365;63009;-71
2023/09/08 00:53:04;;;;;;;0.40;0.40;;;;;;;18.04;69.05;97083.00;29395;218;63005;-70
2023/09/08 00:53:37;;;;;;;0.40;0.40;;;;;;;18.02;69.47;97080.56;29395;236;63009;-70
2023/09/08 00:54:08;;;;;;;0.40;0.40;;;;;;;18.01;69.05;97083.69;29395;284;63005;-68
2023/09/08 00:54:41;;;;;;;0.40;0.40;;;;;;;17.99;69.26;97081.28;29394;300;64013;-69
2023/09/08 00:55:13;;;;;;;0.40;0.40;;;;;;;17.99;69.27;97081.28;29395;212;63011;-73
2023/09/08 00:55:45;;;;;;;0.40;0.40;;;;;;;17.99;69.44;97084.03;29395;197;63009;-70
2023/09/08 00:56:17;;;;;;;0.40;0.40;;;;;;;17.98;69.10;97078.88;29395;196;63004;-69
2023/09/08 00:56:53;;;;;;;0.40;0.40;;;;;;;17.98;69.56;97084.34;29395;265;63009;-68
2023/09/08 00:57:25;;;;;;;0.40;0.40;;;;;;;17.96;69.46;97087.44;29395;257;63012;-67
2023/09/08 00:57:58;;;;;;;0.40;0.40;;;;;;;17.95;69.67;97099.56;29395;287;63008;-69
2023/09/08 00:58:30;;;;;;;0.32;0.32;;;;;;;17.95;69.27;97083.09;29395;222;63004;-70
2023/09/08 00:59:04;;;;;;;0.40;0.40;;;;;;;17.93;69.22;97082.63;29394;203;64014;-69
2023/09/08 00:59:36;;;;;;;0.40;0.40;;;;;;;17.94;69.45;97083.41;29395;341;63005;-71
2023/09/08 01:00:09;;;;;;;0.40;0.40;;;;;;;17.93;69.75;97079.88;29395;262;63014;-68
2023/09/08 01:00:40;;;;;;;0.40;0.40;;;;;;;17.92;69.33;97080.19;29395;275;63008;-68
2023/09/08 01:01:11;;;;;;;0.40;0.40;;;;;;;17.92;69.45;97080.19;29395;326;63009;-69
2023/09/08 01:02:47;;;;;;;0.42;0.42;;;;;;;17.90;69.86;97086.03;88182;218;64004;-89
2023/09/08 01:03:20;;;;;;;0.40;0.40;;;;;;;17.89;69.84;97083.63;29394;243;64009;-92
2023/09/08 01:03:52;;;;;;;0.40;0.40;;;;;;;17.89;69.81;97084.41;29395;247;63009;-92
2023/09/08 01:04:48;;;;;;;0.40;0.40;;;;;;;17.87;69.74;97083.94;29395;223;63009;-90
2023/09/08 01:05:50;;;;;;;0.40;0.40;;;;;;;17.85;69.84;97086.22;29395;228;63004;-93
2023/09/08 01:06:24;;;;;;;0.40;0.40;;;;;;;17.85;70.25;97086.22;29416;220;64004;-92
2023/09/08 01:06:58;;;;;;;0.40;0.40;;;;;;;17.86;70.22;97081.53;29395;275;63004;-89
2023/09/08 01:07:53;;;;;;;0.40;0.40;;;;;;;17.85;70.18;97088.97;29395;197;63009;-93
2023/09/08 01:08:25;;;;;;;0.40;0.40;;;;;;;17.85;70.15;97086.22;29395;238;63005;-89
2023/09/08 01:08:57;;;;;;;0.40;0.40;;;;;;;17.86;70.03;97082.34;29395;210;63009;-92
2023/09/08 01:09:30;;;;;;;0.70;0.70;;;;;;;17.86;69.99;97079.59;29395;230;63005;-92
2023/09/08 01:10:08;;;;;;;0.40;0.40;;;;;;;17.88;69.73;97082.81;29395;230;63009;-93
2023/09/08 01:10:58;;;;;;;0.40;0.40;;;;;;;17.86;69.71;97082.34;29394;218;64009;-92
2023/09/08 01:11:30;;;;;;;0.40;0.40;;;;;;;17.86;70.02;97082.34;29395;222;63004;-89
2023/09/08 01:12:06;;;;;;;0.40;0.40;;;;;;;17.86;69.96;97079.59;29395;273;63004;-91
2023/09/08 01:12:38;;;;;;;0.40;0.40;;;;;;;17.85;70.03;97088.97;29395;236;63009;-92
2023/09/08 01:13:17;;;;;;;0.40;0.40;;;;;;;17.85;70.15;97086.22;29395;241;63004;-91
2023/09/08 01:14:05;;;;;;;0.40;0.40;;;;;;;17.84;70.20;97089.31;29395;208;63008;-91
2023/09/08 01:14:40;;;;;;;0.37;0.37;;;;;;;17.84;70.27;97081.87;29417;211;63004;-92
2023/09/08 01:15:15;;;;;;;0.40;0.40;;;;;;;17.84;70.07;97087.38;29395;245;63009;-92
2023/09/08 01:15:52;;;;;;;0.40;0.40;;;;;;;17.82;70.22;97086.88;29394;246;64009;-91
2023/09/08 01:16:26;;;;;;;0.40;0.40;;;;;;;17.82;70.28;97081.41;29395;240;63008;-92
2023/09/08 01:17:05;;;;;;;0.40;0.40;;;;;;;17.83;70.22;97084.94;29395;228;63005;-90
2023/09/08 01:17:37;;;;;;;0.40;0.40;;;;;;;17.84;70.25;97081.87;29395;275;63009;-91
2023/09/08 01:18:08;;;;;;;0.40;0.40;;;;;;;17.87;70.24;97083.94;29395;209;63005;-91
2023/09/08 01:18:41;;;;;;;0.40;0.40;;;;;;;17.88;70.12;97074.56;29395;213;63009;-92
2023/09/08 01:19:16;;;;;;;0.40;0.40;;;;;;;17.89;70.12;97086.38;29394;282;64009;-89
2023/09/08 01:19:53;;;;;;;0.40;0.40;;;;;;;17.88;70.36;97088.31;29395;232;63009;-92
2023/09/08 01:21:02;;;;;;;0.40;0.40;;;;;;;17.88;70.01;97073.78;29394;245;64009;-91
2023/09/08 01:22:11;;;;;;;0.40;0.40;;;;;;;17.86;70.53;97087.03;29395;301;63004;-90
2023/09/08 01:23:52;;;;;;;0.40;0.40;;;;;;;17.88;70.40;97077.31;29395;202;63009;-90
2023/09/08 01:25:05;;;;;;;0.40;0.40;;;;;;;17.88;70.70;97082.00;29394;252;64009;-92
2023/09/08 01:25:46;;;;;;;0.50;0.50;;;;;;;17.88;70.58;97090.25;29395;232;63026;-91
2023/09/08 01:26:22;;;;;;;0.40;0.40;;;;;;;17.86;70.61;97087.84;29394;278;64009;-90
2023/09/08 01:26:53;;;;;;;0.40;0.40;;;;;;;17.85;70.71;97086.22;29395;233;63009;-90
2023/09/08 01:27:27;;;;;;;0.30;0.30;;;;;;;17.84;70.67;97090.09;29395;250;63004;-89
2023/09/08 01:28:01;;;;;;;0.40;0.40;;;;;;;17.82;70.82;97086.88;29395;227;63004;-91
2023/09/08 01:28:33;;;;;;;0.40;0.40;;;;;;;17.81;70.86;97090.78;29395;228;63004;-90
2023/09/08 01:29:06;;;;;;;0.40;0.40;;;;;;;17.79;71.15;97082.06;29395;253;63008;-91
2023/09/08 01:29:40;;;;;;;0.40;0.40;;;;;;;17.80;71.13;97091.09;29395;214;63004;-90
2023/09/08 01:30:14;;;;;;;0.40;0.40;;;;;;;17.78;71.21;97085.94;29395;205;63009;-89
2023/09/08 01:30:49;;;;;;;0.40;0.40;;;;;;;17.77;71.62;97084.34;29394;211;64005;-89
2023/09/08 01:31:21;;;;;;;0.40;0.40;;;;;;;17.76;71.22;97082.72;29394;220;64014;-90
2023/09/08 01:31:54;;;;;;;0.40;0.40;;;;;;;17.73;71.42;97086.16;29395;202;63005;-91
2023/09/08 01:32:27;;;;;;;0.40;0.40;;;;;;;17.71;71.41;97085.66;29395;208;63009;-92
2023/09/08 01:33:02;;;;;;;0.30;0.30;;;;;;;17.70;71.63;97084.06;29395;262;63005;-90
2023/09/08 01:33:34;;;;;;;0.40;0.40;;;;;;;17.68;71.77;97084.41;29395;218;63026;-91
2023/09/08 01:34:08;;;;;;;0.30;0.30;;;;;;;17.68;71.83;97084.41;29395;236;63004;-91
2023/09/08 01:34:43;;;;;;;0.35;0.35;;;;;;;17.66;71.79;97088.66;29394;208;64009;-91
2023/09/08 01:35:15;;;;;;;0.40;0.40;;;;;;;17.65;71.94;97087.03;29395;221;63004;-92
2023/09/08 01:35:47;;;;;;;0.37;0.37;;;;;;;17.64;71.95;97090.88;29395;198;63008;-90
2023/09/08 01:36:21;;;;;;;0.40;0.40;;;;;;;17.63;72.23;97089.28;29395;226;63004;-91
2023/09/08 01:36:53;;;;;;;0.40;0.40;;;;;;;17.61;72.07;97086.88;29394;269;64013;-91
2023/09/08 01:37:26;;;;;;;0.40;0.40;;;;;;;17.59;72.22;97083.66;29395;295;63005;-91
2023/09/08 01:37:59;;;;;;;0.75;0.75;;;;;;;17.59;72.42;97082.84;29395;231;63005;-90
2023/09/08 01:38:32;;;;;;;0.40;0.40;;;;;;;17.58;72.28;97087.53;29395;258;63005;-92
2023/09/08 01:39:06;;;;;;;0.40;0.40;;;;;;;17.57;72.54;97087.84;29395;239;63009;-90
2023/09/08 01:39:38;;;;;;;0.40;0.40;;;;;;;17.56;72.40;97083.50;29395;202;63005;-89
2023/09/08 01:40:11;;;;;;;0.40;0.40;;;;;;;17.57;72.46;97096.09;29395;245;63009;-91
2023/09/08 01:40:42;;;;;;;0.40;0.40;;;;;;;17.55;72.70;97090.94;29395;313;63005;-92
2023/09/08 01:41:15;;;;;;;0.40;0.40;;;;;;;17.54;72.89;97083.84;29395;292;63009;-90
2023/09/08 01:41:46;;;;;;;0.40;0.40;;;;;;;17.55;72.57;97088.19;29395;290;63004;-92
2023/09/08 01:42:30;;;;;;;0.40;0.40;;;;;;;17.50;72.32;97079.34;29394;197;64013;-90
2023/09/08 01:43:16;;;;;;;0.40;0.40;;;;;;;17.53;72.58;97079.50;29395;267;63004;-91
2023/09/08 01:44:28;;;;;;;0.40;0.40;;;;;;;17.52;72.69;97074.34;29395;219;63004;-91
2023/09/08 01:45:28;;;;;;;0.40;0.40;;;;;;;17.52;72.72;97074.34;29394;203;64009;-91
2023/09/08 01:46:10;;;;;;;0.40;0.40;;;;;;;17.53;72.57;97075.94;29395;220;63009;-90
2023/09/08 01:46:42;;;;;;;0.40;0.40;;;;;;;17.55;72.30;97079.16;29395;214;63005;-92
2023/09/08 01:47:30;;;;;;;0.40;0.40;;;;;;;17.53;72.26;97078.69;29395;197;63009;-91
2023/09/08 01:48:26;;;;;;;0.40;0.40;;;;;;;17.54;72.70;97080.28;29395;205;63005;-89
2023/09/08 01:48:58;;;;;;;0.40;0.40;;;;;;;17.54;72.81;97069.31;29395;210;63009;-90
2023/09/08 01:49:33;;;;;;;0.40;0.40;;;;;;;17.56;72.46;97075.28;29394;251;63999;-93
2023/09/08 01:50:25;;;;;;;0.40;0.40;;;;;;;17.55;72.47;97076.41;29395;235;63009;-90
2023/09/08 01:51:24;;;;;;;0.40;0.40;;;;;;;17.54;72.27;97072.88;29395;233;63004;-91
2023/09/08 01:52:37;;;;;;;0.40;0.40;;;;;;;17.52;72.92;97079.81;29395;271;63009;-90
2023/09/08 01:53:30;;;;;;;0.40;0.40;;;;;;;17.50;72.54;97079.34;29395;197;63005;-91
2023/09/08 01:54:22;;;;;;;0.40;0.40;;;;;;;17.47;72.54;97074.53;29394;238;64013;-91
2023/09/08 01:55:47;;;;;;;0.40;0.40;;;;;;;17.46;72.50;97067.44;29417;198;63005;-92
2023/09/08 01:56:59;;;;;;;0.37;0.37;;;;;;;17.42;72.72;97083.75;29394;224;64013;-91
2023/09/08 01:57:33;;;;;;;0.40;0.40;;;;;;;17.41;72.91;97079.41;29416;234;64009;-92
2023/09/08 01:58:52;;;;;;;0.40;0.40;;;;;;;17.40;73.10;97075.03;29394;229;64009;-90
2023/09/08 01:59:45;;;;;;;0.40;0.40;;;;;;;17.38;73.09;97074.56;29395;207;63005;-91
2023/09/08 02:00:48;;;;;;;0.45;0.45;;;;;;;17.36;73.28;97079.59;29394;212;64014;-91
2023/09/08 02:01:29;;;;;;;0.40;0.40;;;;;;;17.33;73.20;97075.56;29395;205;63005;-91
2023/09/08 02:02:06;;;;;;;0.40;0.40;;;;;;;17.31;73.52;97080.59;29395;229;63009;-92
2023/09/08 02:02:43;;;;;;;0.40;0.40;;;;;;;17.29;73.46;97074.66;29395;202;63005;-91
2023/09/08 02:03:16;;;;;;;0.40;0.40;;;;;;;17.28;73.39;97075.78;29395;237;63009;-90
2023/09/08 02:03:52;;;;;;;0.40;0.40;;;;;;;17.27;73.52;97079.66;29395;211;63004;-91
2023/09/08 02:04:28;;;;;;;0.40;0.40;;;;;;;17.27;73.69;97079.66;29395;221;63009;-91
2023/09/08 02:05:39;;;;;;;;;;;;;;;;;;;;;
2023/09/08 02:07:32;;;;;;;0.50;0.50;;;;;;;17.22;73.90;97079.84;29438;229;64013;-91
2023/09/08 02:08:08;;;;;;;0.40;0.40;;;;;;;17.21;74.35;97078.22;29417;248;63005;-91
2023/09/08 02:08:53;;;;;;;0.40;0.40;;;;;;;17.18;74.04;97078.88;29395;232;63009;-90
2023/09/08 02:10:28;;;;;;;;;;;;;;;;;;;;;
2023/09/08 02:12:16;;;;;;;0.40;0.40;;;;;;;17.16;74.60;97074.87;29394;284;64013;-94
2023/09/08 02:13:52;;;;;;;0.40;0.40;;;;;;;17.15;74.44;97073.25;29417;267;63009;-68
2023/09/08 02:14:23;;;;;;;0.40;0.40;;;;;;;17.15;74.68;97076.81;29394;214;64014;-69
2023/09/08 02:14:55;;;;;;;0.40;0.40;;;;;;;17.14;74.63;97075.19;29395;232;63005;-69
2023/09/08 02:15:26;;;;;;;0.40;0.40;;;;;;;17.14;74.51;97077.94;29394;198;64014;-70
2023/09/08 02:15:59;;;;;;;0.40;0.40;;;;;;;17.14;74.59;97077.13;29395;197;63005;-67
2023/09/08 02:16:30;;;;;;;0.40;0.40;;;;;;;17.13;74.38;97070.03;29395;204;63009;-69
2023/09/08 02:17:02;;;;;;;0.40;0.40;;;;;;;17.11;74.47;97073.13;29395;231;63005;-67
2023/09/08 02:17:33;;;;;;;0.40;0.40;;;;;;;17.09;74.12;97072.66;29395;208;63009;-69
2023/09/08 02:18:11;;;;;;;0.40;0.40;;;;;;;17.08;74.39;97073.78;29394;244;64009;-70
2023/09/08 02:18:44;;;;;;;0.40;0.40;;;;;;;17.07;74.39;97072.97;29395;225;63009;-69
2023/09/08 02:19:15;;;;;;;0.32;0.32;;;;;;;17.07;74.65;97066.69;29395;207;63004;-67
2023/09/08 02:19:47;;;;;;;0.40;0.40;;;;;;;17.07;74.76;97083.13;29395;219;63009;-68
2023/09/08 02:20:18;;;;;;;0.32;0.32;;;;;;;17.07;74.81;97066.69;29394;198;64004;-67
2023/09/08 02:20:49;;;;;;;0.30;0.30;;;;;;;17.06;74.20;97065.06;29395;274;63024;-69
2023/09/08 02:21:22;;;;;;;0.30;0.30;;;;;;;17.06;74.75;97076.03;29395;237;63004;-71
2023/09/08 02:21:53;;;;;;;0.40;0.40;;;;;;;17.06;74.26;97070.56;29395;198;63009;-68
2023/09/08 02:22:26;;;;;;;0.30;0.30;;;;;;;17.04;74.63;97072.81;29394;229;64009;-70
2023/09/08 02:23:03;;;;;;;0.30;0.30;;;;;;;17.04;74.81;97072.81;29395;222;63005;-67
2023/09/08 02:23:35;;;;;;;0.40;0.40;;;;;;;17.05;74.73;97074.44;29394;218;64009;-71
2023/09/08 02:24:07;;;;;;;0.40;0.40;;;;;;;17.05;74.59;97077.19;29395;204;63009;-69
2023/09/08 02:24:38;;;;;;;0.30;0.30;;;;;;;17.04;74.69;97072.81;29395;224;63005;-69
2023/09/08 02:25:09;;;;;;;0.30;0.30;;;;;;;17.05;74.84;97072.50;29395;229;63009;-67
2023/09/08 02:25:40;;;;;;;0.37;0.37;;;;;;;17.03;75.18;97069.28;29395;197;63005;-70
2023/09/08 02:26:11;;;;;;;0.40;0.40;;;;;;;17.04;75.07;97072.81;29395;228;63009;-68
2023/09/08 02:26:43;;;;;;;0.30;0.30;;;;;;;17.03;75.01;97071.22;29395;228;63004;-52
2023/09/08 02:27:14;;;;;;;0.30;0.30;;;;;;;17.02;75.08;97072.34;29395;234;63009;-70
2023/09/08 02:27:45;;;;;;;0.40;0.40;;;;;;;17.01;74.71;97070.75;29394;265;64009;-69
2023/09/08 02:28:16;;;;;;;0.40;0.40;;;;;;;17.02;75.03;97069.59;29395;205;63009;-69
2023/09/08 02:28:48;;;;;;;0.40;0.40;;;;;;;17.00;75.20;97066.37;29395;305;63004;-69
2023/09/08 02:29:19;;;;;;;0.40;0.40;;;;;;;17.00;74.80;97067.19;29395;231;63016;-70
2023/09/08 02:29:51;;;;;;;0.30;0.30;;;;;;;16.98;75.23;97072.19;29395;224;63005;-68
2023/09/08 02:30:22;;;;;;;0.40;0.40;;;;;;;16.98;74.82;97068.69;29395;218;63009;-69
2023/09/08 02:30:54;;;;;;;0.40;0.40;;;;;;;16.98;75.27;97071.44;29395;227;63005;-69
2023/09/08 02:31:31;;;;;;;0.40;0.40;;;;;;;16.97;75.38;97067.88;29394;215;64004;-68
2023/09/08 02:32:03;;;;;;;0.40;0.40;;;;;;;16.97;75.44;97067.06;29395;209;63005;-69
2023/09/08 02:32:37;;;;;;;0.40;0.40;;;;;;;16.97;75.41;97064.34;29395;220;63009;-69
2023/09/08 02:33:12;;;;;;;0.40;0.40;;;;;;;16.96;75.65;97060.78;29394;208;64005;-71
2023/09/08 02:33:43;;;;;;;0.40;0.40;;;;;;;16.95;75.36;97063.88;29395;199;63009;-71
2023/09/08 02:34:16;;;;;;;0.40;0.40;;;;;;;16.93;75.59;97061.44;29395;253;63014;-68
2023/09/08 02:34:48;;;;;;;0.40;0.40;;;;;;;16.94;75.49;97067.72;29395;225;63009;-70
2023/09/08 02:35:19;;;;;;;0.40;0.40;;;;;;;16.93;75.56;97071.59;29395;226;63004;-69
2023/09/08 02:35:52;;;;;;;0.35;0.35;;;;;;;16.92;75.81;97070.81;29395;199;63009;-71
2023/09/08 02:36:26;;;;;;;0.40;0.40;;;;;;;16.92;75.92;97070.00;29394;230;64022;-70
2023/09/08 02:37:01;;;;;;;0.40;0.40;;;;;;;16.92;76.03;97075.47;29395;250;63009;-68
2023/09/08 02:37:32;;;;;;;0.40;0.40;;;;;;;16.92;76.11;97070.00;29394;221;64009;-70
2023/09/08 02:38:07;;;;;;;0.40;0.40;;;;;;;16.91;76.10;97060.16;29395;215;63009;-70
2023/09/08 02:38:38;;;;;;;0.40;0.40;;;;;;;16.89;75.97;97073.41;29395;243;63005;-69
2023/09/08 02:39:10;;;;;;;0.37;0.37;;;;;;;16.90;76.01;97066.78;29395;223;63009;-70
2023/09/08 02:39:43;;;;;;;0.40;0.40;;;;;;;16.89;76.34;97065.97;29395;286;63005;-70
2023/09/08 02:40:14;;;;;;;0.40;0.40;;;;;;;16.88;76.14;97069.03;29395;229;63009;-70
2023/09/08 02:40:45;;;;;;;0.40;0.40;;;;;;;16.88;76.61;97063.56;29395;235;63004;-69
2023/09/08 02:41:17;;;;;;;0.30;0.30;;;;;;;16.87;76.45;97068.25;29395;218;63009;-68
2023/09/08 02:41:48;;;;;;;0.40;0.40;;;;;;;16.88;76.61;97069.03;29395;255;63004;-69
2023/09/08 02:42:19;;;;;;;0.40;0.40;;;;;;;16.86;76.40;97069.38;29395;243;63009;-69
2023/09/08 02:42:51;;;;;;;0.30;0.30;;;;;;;16.85;76.66;97065.03;29394;249;64008;-70
2023/09/08 02:43:22;;;;;;;0.40;0.40;;;;;;;16.85;76.26;97064.22;29395;218;63008;-70
2023/09/08 02:43:54;;;;;;;0.40;0.40;;;;;;;16.85;76.60;97067.75;29395;248;63004;-69
2023/09/08 02:44:29;;;;;;;0.40;0.40;;;;;;;16.82;76.43;97059.41;29395;203;63008;-70
2023/09/08 02:45:01;;;;;;;0.30;0.30;;;;;;;16.82;76.59;97059.41;29395;248;63017;-70
2023/09/08 02:45:35;;;;;;;0.40;0.40;;;;;;;16.82;76.51;97070.34;29394;214;64013;-71
2023/09/08 02:46:09;;;;;;;0.40;0.40;;;;;;;16.81;77.10;97069.56;29395;213;63005;-72
2023/09/08 02:46:40;;;;;;;0.40;0.40;;;;;;;16.82;76.49;97065.69;29395;199;63009;-73
2023/09/08 02:47:11;;;;;;;0.40;0.40;;;;;;;16.84;76.57;97068.09;29395;212;63005;-69
2023/09/08 02:47:46;;;;;;;0.40;0.40;;;;;;;16.84;76.32;97065.34;29395;251;63009;-70
2023/09/08 02:48:17;;;;;;;0.40;0.40;;;;;;;16.85;76.33;97069.69;29394;228;64022;-69
2023/09/08 02:48:50;;;;;;;0.40;0.40;;;;;;;16.85;76.67;97069.69;29395;225;63009;-70
2023/09/08 02:49:24;;;;;;;0.40;0.40;;;;;;;16.84;76.38;97068.91;29394;203;64009;-70
2023/09/08 02:49:56;;;;;;;0.40;0.40;;;;;;;16.85;76.46;97069.69;29395;240;63017;-70
2023/09/08 02:50:31;;;;;;;0.40;0.40;;;;;;;16.86;76.26;97065.81;29395;260;63004;-68
2023/09/08 02:51:03;;;;;;;0.40;0.40;;;;;;;16.87;76.09;97061.94;29395;221;63012;-74
2023/09/08 02:51:34;;;;;;;0.40;0.40;;;;;;;16.87;76.08;97070.19;29395;207;63005;-70
2023/09/08 02:52:05;;;;;;;0.40;0.40;;;;;;;16.85;75.93;97065.03;29395;213;63009;-73
2023/09/08 02:52:37;;;;;;;0.30;0.30;;;;;;;16.85;75.90;97061.47;29395;227;63005;-69
2023/09/08 02:53:08;;;;;;;0.40;0.40;;;;;;;16.85;76.27;97062.28;29395;206;63009;-70
2023/09/08 02:53:39;;;;;;;0.40;0.40;;;;;;;16.85;76.02;97059.53;29395;232;63005;-69
2023/09/08 02:54:10;;;;;;;0.40;0.40;;;;;;;16.85;75.85;97064.22;29395;226;63009;-67
2023/09/08 02:54:43;;;;;;;0.40;0.40;;;;;;;16.84;75.92;97057.94;29394;231;64009;-71